createdAt,value
2022-11-25T00:00:14.665Z,0.33
2022-11-25T00:05:28.397Z,1.00
2022-11-25T00:10:30.890Z,0.90
2022-11-25T00:15:34.721Z,1.10
2022-11-25T00:20:39.690Z,1.10
2022-11-25T00:30:45.448Z,0.67
2022-11-25T00:35:49.405Z,0.40
2022-11-25T00:41:16.820Z,1.47
2022-11-25T00:46:19.444Z,1.60
2022-11-25T00:51:23.839Z,2.93
2022-11-25T00:56:26.368Z,2.58
2022-11-25T01:01:29.054Z,1.70
2022-11-25T01:06:33.006Z,1.13
2022-11-25T01:11:35.711Z,1.25
2022-11-25T01:16:38.385Z,0.87
2022-11-25T01:21:42.364Z,2.03
2022-11-25T01:26:45.441Z,2.75
2022-11-25T01:31:48.251Z,1.40
2022-11-25T01:36:52.481Z,1.83
2022-11-25T01:41:55.284Z,2.45
2022-11-25T01:47:06.431Z,0.50
2022-11-25T01:52:13.636Z,3.63
2022-11-25T01:57:18.582Z,0.93
2022-11-25T02:02:21.810Z,2.60
2022-11-25T02:07:29.096Z,1.80
2022-11-25T02:12:32.042Z,1.20
2022-11-25T02:17:34.604Z,1.03
2022-11-25T02:22:46.325Z,1.17
2022-11-25T02:27:52.738Z,0.40
2022-11-25T02:32:55.346Z,1.10
2022-11-25T02:37:59.303Z,1.90
2022-11-25T02:43:03.160Z,1.10
2022-11-25T02:48:06.088Z,1.42
2022-11-25T02:53:08.638Z,1.60
2022-11-25T02:58:12.801Z,3.27
2022-11-25T03:08:17.752Z,0.83
2022-11-25T03:13:21.770Z,0.80
2022-11-25T03:18:24.353Z,1.30
2022-11-25T03:23:27.095Z,1.23
2022-11-25T03:28:31.262Z,0.20
2022-11-25T03:38:36.542Z,1.33
2022-11-25T03:43:40.864Z,1.40
2022-11-25T03:48:43.431Z,1.33
2022-11-25T03:53:46.705Z,0.97
2022-11-25T03:58:50.558Z,1.00
2022-11-25T04:03:53.119Z,0.90
2022-11-25T04:08:56.812Z,1.25
2022-11-25T04:14:00.793Z,1.13
2022-11-25T04:19:03.786Z,1.00
2022-11-25T04:24:06.637Z,1.10
2022-11-25T04:29:10.493Z,1.07
2022-11-25T04:34:13.357Z,1.40
2022-11-25T04:39:15.933Z,1.03
2022-11-25T04:44:19.859Z,1.50
2022-11-25T04:49:22.373Z,1.30
2022-11-25T04:54:24.965Z,1.85
2022-11-25T04:59:40.946Z,1.30
2022-11-25T05:04:44.611Z,1.20
2022-11-25T05:09:47.232Z,1.20
2022-11-25T05:14:51.350Z,1.20
2022-11-25T05:19:54.743Z,1.23
2022-11-25T05:24:57.512Z,1.40
2022-11-25T05:30:01.367Z,0.90
2022-11-25T05:35:03.986Z,0.63
2022-11-25T05:40:07.592Z,1.90
2022-11-25T05:45:12.312Z,0.30
2022-11-25T05:50:15.205Z,0.70
2022-11-25T05:55:17.807Z,0.70
2022-11-25T06:00:26.422Z,1.17
2022-11-25T06:05:29.389Z,1.00
2022-11-25T06:10:31.872Z,0.70
2022-11-25T06:15:35.788Z,1.17
2022-11-25T06:20:38.457Z,0.80
2022-11-25T06:25:40.993Z,0.82
2022-11-25T06:30:45.583Z,0.98
2022-11-25T06:35:48.332Z,0.70
2022-11-25T06:40:50.919Z,0.80
2022-11-25T06:45:55.069Z,0.20
2022-11-25T06:50:58.404Z,0.80
2022-11-25T06:56:08.558Z,0.70
2022-11-25T07:01:14.590Z,0.43
2022-11-25T07:06:18.253Z,0.50
2022-11-25T07:11:22.687Z,0.88
2022-11-25T07:16:26.991Z,1.02
2022-11-25T07:21:30.865Z,1.38
2022-11-25T07:26:36.409Z,1.85
2022-11-25T07:36:43.072Z,1.70
2022-11-25T07:41:46.142Z,1.33
2022-11-25T07:46:50.276Z,1.60
2022-11-25T07:51:56.762Z,1.07
2022-11-25T07:56:59.755Z,1.35
2022-11-25T08:02:02.497Z,1.15
2022-11-25T08:07:07.603Z,0.95
2022-11-25T08:12:10.608Z,1.15
2022-11-25T08:17:23.217Z,1.80
2022-11-25T08:22:27.148Z,1.15
2022-11-25T08:27:29.834Z,0.55
2022-11-25T08:32:32.542Z,2.03
2022-11-25T08:37:41.894Z,1.60
2022-11-25T08:47:48.360Z,1.30
2022-11-25T08:52:53.517Z,1.60
2022-11-25T08:57:58.248Z,3.33
2022-11-25T09:03:11.365Z,1.45
2022-11-25T09:08:15.818Z,1.70
2022-11-25T09:13:18.443Z,1.42
2022-11-25T09:18:25.951Z,1.60
2022-11-25T09:23:30.044Z,2.15
2022-11-25T09:28:33.255Z,1.88
2022-11-25T09:33:36.838Z,1.67
2022-11-25T09:38:51.580Z,2.50
2022-11-25T09:44:15.230Z,2.38
2022-11-25T09:49:39.677Z,2.17
2022-11-25T09:54:46.243Z,2.10
2022-11-25T09:59:51.919Z,2.10
2022-11-25T10:04:59.384Z,2.00
2022-11-25T10:10:05.052Z,2.05
2022-11-25T10:15:13.520Z,2.00
2022-11-25T10:20:18.375Z,1.92
2022-11-25T10:25:24.032Z,1.90
2022-11-25T10:30:27.428Z,2.28
2022-11-25T10:35:32.655Z,3.30
2022-11-25T10:40:36.719Z,2.70
2022-11-25T10:45:41.971Z,2.70
2022-11-25T10:50:52.617Z,1.90
2022-11-25T10:56:01.566Z,2.17
2022-11-25T11:01:05.917Z,2.00
2022-11-25T11:06:28.902Z,2.20
2022-11-25T11:11:33.354Z,1.65
2022-11-25T11:16:37.866Z,1.67
2022-11-25T11:21:42.369Z,0.77
2022-11-25T11:26:46.628Z,0.93
2022-11-25T11:31:51.644Z,1.17
2022-11-25T11:37:15.041Z,1.02
2022-11-25T11:42:23.745Z,1.00
2022-11-25T11:47:31.552Z,1.20
2022-11-25T11:52:41.324Z,1.42
2022-11-25T11:57:51.838Z,1.30
2022-11-25T12:03:01.755Z,1.38
2022-11-25T12:08:07.484Z,1.75
2022-11-25T12:13:17.035Z,1.73
2022-11-25T12:18:25.508Z,1.60
2022-11-25T12:23:30.128Z,1.70
2022-11-25T12:28:36.991Z,1.70
2022-11-25T12:33:45.076Z,1.50
2022-11-25T12:38:50.375Z,1.45
2022-11-25T12:43:57.760Z,1.80
2022-11-25T12:49:00.982Z,1.45
2022-11-25T12:54:10.176Z,0.95
2022-11-25T12:59:28.654Z,3.75
2022-11-25T13:04:46.277Z,1.20
2022-11-25T13:10:08.167Z,1.00
2022-11-25T13:15:24.833Z,1.15
2022-11-25T13:20:40.406Z,0.90
2022-11-25T13:25:44.508Z,1.20
2022-11-25T13:30:51.665Z,1.20
2022-11-25T13:35:54.615Z,1.38
2022-11-25T13:40:58.162Z,1.40
2022-11-25T13:46:02.548Z,0.90
2022-11-25T13:51:17.381Z,1.10
2022-11-25T13:56:27.075Z,1.38
2022-11-25T14:01:30.943Z,1.00
2022-11-25T14:06:51.185Z,1.20
2022-11-25T14:12:10.514Z,1.70
2022-11-25T14:17:24.124Z,1.05
2022-11-25T14:22:36.940Z,1.27
2022-11-25T14:27:39.934Z,1.40
2022-11-25T14:32:45.171Z,1.50
2022-11-25T14:37:49.994Z,1.92
2022-11-25T14:42:55.104Z,1.55
2022-11-25T14:47:59.199Z,1.90
2022-11-25T14:58:04.403Z,2.40
2022-11-25T15:03:18.913Z,1.17
2022-11-25T15:08:26.209Z,1.75
2022-11-25T15:13:31.740Z,1.65
2022-11-25T15:18:36.639Z,1.80
2022-11-25T15:23:40.358Z,2.10
2022-11-25T15:28:42.987Z,2.00
2022-11-25T15:33:46.903Z,1.38
2022-11-25T15:38:49.468Z,1.75
2022-11-25T15:43:54.241Z,1.80
2022-11-25T15:48:59.527Z,2.22
2022-11-25T15:54:04.148Z,1.10
2022-11-25T15:59:06.842Z,2.00
2022-11-25T16:04:19.482Z,1.77
2022-11-25T16:09:23.418Z,1.83
2022-11-25T16:14:35.836Z,1.05
2022-11-25T16:19:42.118Z,1.90
2022-11-25T16:24:50.572Z,1.60
2022-11-25T16:29:55.942Z,1.40
2022-11-25T16:35:23.293Z,1.33
2022-11-25T16:40:27.830Z,1.20
2022-11-25T16:45:30.776Z,2.10
2022-11-25T16:50:35.845Z,1.63
2022-11-25T16:55:39.141Z,2.28
2022-11-25T17:00:41.944Z,1.97
2022-11-25T17:05:46.978Z,2.20
2022-11-25T17:10:50.508Z,1.85
2022-11-25T17:15:53.419Z,2.35
2022-11-25T17:20:57.532Z,2.75
2022-11-25T17:26:00.948Z,2.75
2022-11-25T17:31:06.689Z,3.03
2022-11-25T17:36:12.232Z,3.28
2022-11-25T17:41:20.471Z,2.58
2022-11-25T17:46:24.742Z,3.72
2022-11-25T17:51:28.908Z,4.18
2022-11-25T18:01:34.944Z,5.15
2022-11-25T18:06:38.827Z,5.03
2022-11-25T18:11:46.751Z,5.47
2022-11-25T18:16:49.562Z,5.18
2022-11-25T18:21:53.844Z,4.38
2022-11-25T18:26:57.564Z,4.20
2022-11-25T18:32:00.140Z,2.70
2022-11-25T18:37:04.434Z,4.60
2022-11-25T18:42:07.382Z,4.75
2022-11-25T18:47:10.915Z,3.45
2022-11-25T18:52:15.027Z,4.43
2022-11-25T18:57:17.581Z,4.05
2022-11-25T19:02:20.173Z,4.40
2022-11-25T19:07:24.137Z,4.55
2022-11-25T19:12:26.996Z,3.42
2022-11-25T19:17:29.631Z,3.90
2022-11-25T19:22:33.535Z,2.67
2022-11-25T19:27:37.357Z,2.75
2022-11-25T19:32:40.284Z,4.82
2022-11-25T19:37:44.251Z,3.75
2022-11-25T19:42:48.266Z,2.35
2022-11-25T19:47:52.899Z,4.15
2022-11-25T19:52:57.522Z,3.85
2022-11-25T19:58:00.374Z,3.42
2022-11-25T20:03:03.424Z,3.55
2022-11-25T20:08:07.448Z,5.57
2022-11-25T20:13:10.773Z,4.07
2022-11-25T20:18:17.979Z,5.17
2022-11-25T20:23:25.357Z,2.03
2022-11-25T20:28:29.990Z,4.80
2022-11-25T20:33:32.560Z,2.78
2022-11-25T20:38:39.829Z,4.25
2022-11-25T20:43:43.828Z,5.10
2022-11-25T20:48:46.901Z,2.67
2022-11-25T20:53:52.496Z,2.72
2022-11-25T20:58:55.534Z,5.22
2022-11-25T21:03:58.159Z,4.60
2022-11-25T21:09:02.646Z,4.53
2022-11-25T21:14:07.187Z,4.07
2022-11-25T21:19:10.066Z,3.67
2022-11-25T21:24:18.523Z,4.75
2022-11-25T21:29:21.897Z,2.90
2022-11-25T21:34:24.401Z,5.25
2022-11-25T21:39:30.302Z,1.88
2022-11-25T21:44:34.094Z,3.30
2022-11-25T21:49:36.815Z,4.00
2022-11-25T21:54:40.829Z,2.45
2022-11-25T21:59:45.739Z,3.35
2022-11-25T22:04:53.193Z,3.00
2022-11-25T22:09:57.157Z,3.47
2022-11-25T22:15:00.368Z,3.58
2022-11-25T22:20:03.102Z,5.83
2022-11-25T22:25:07.714Z,3.85
2022-11-25T22:30:13.154Z,4.47
2022-11-25T22:35:16.927Z,4.78
2022-11-25T22:40:20.907Z,3.40
2022-11-25T22:45:27.653Z,4.45
2022-11-25T22:50:31.768Z,3.75
2022-11-25T22:55:35.647Z,4.50
2022-11-25T23:00:40.836Z,5.32
2022-11-25T23:05:43.408Z,3.22
2022-11-25T23:10:49.957Z,2.90
2022-11-25T23:15:54.345Z,4.72
2022-11-25T23:20:57.036Z,4.43
2022-11-25T23:26:01.297Z,4.82
2022-11-25T23:31:04.302Z,3.72
2022-11-25T23:36:09.535Z,4.45
2022-11-25T23:41:16.505Z,4.32
2022-11-25T23:46:21.538Z,4.38
2022-11-25T23:51:24.953Z,2.00
2022-11-25T23:56:29.526Z,1.60
